createdAt,value
2018-10-06T00:03:30.630Z,12.77
2018-10-06T00:08:34.378Z,16.90
2018-10-06T00:13:37.971Z,18.30
2018-10-06T00:18:41.570Z,15.17
2018-10-06T00:23:45.271Z,13.40
2018-10-06T00:28:48.870Z,17.90
2018-10-06T00:33:52.482Z,13.17
2018-10-06T00:38:56.069Z,16.67
2018-10-06T00:43:59.661Z,14.53
2018-10-06T00:49:03.347Z,15.53
2018-10-06T00:54:07.094Z,16.00
2018-10-06T00:59:10.686Z,14.97
2018-10-06T01:04:14.270Z,12.53
2018-10-06T01:09:17.867Z,12.57
2018-10-06T01:14:21.459Z,19.90
2018-10-06T01:19:25.056Z,15.00
2018-10-06T01:24:28.648Z,15.40
2018-10-06T01:29:33.333Z,17.20
2018-10-06T01:34:36.930Z,11.90
2018-10-06T01:39:40.530Z,17.43
2018-10-06T01:44:44.145Z,10.20
2018-10-06T01:49:47.765Z,15.63
2018-10-06T01:54:51.345Z,14.93
2018-10-06T01:59:54.931Z,18.80
2018-10-06T02:04:58.617Z,14.17
2018-10-06T02:10:02.210Z,13.00
2018-10-06T02:15:05.811Z,16.00
2018-10-06T02:20:09.705Z,15.30
2018-10-06T02:25:13.306Z,13.43
2018-10-06T02:30:17.009Z,12.10
2018-10-06T02:35:20.502Z,12.70
2018-10-06T02:40:24.094Z,15.07
2018-10-06T02:45:27.681Z,15.97
2018-10-06T02:50:31.303Z,17.30
2018-10-06T02:55:34.904Z,16.77
2018-10-06T03:00:38.584Z,16.37
2018-10-06T03:05:42.231Z,10.47
2018-10-06T03:10:45.822Z,15.07
2018-10-06T03:15:49.475Z,11.60
2018-10-06T03:20:53.069Z,17.23
2018-10-06T03:25:56.661Z,16.40
2018-10-06T03:31:00.259Z,17.60
2018-10-06T03:36:03.936Z,14.03
2018-10-06T03:41:07.529Z,14.10
2018-10-06T03:46:11.710Z,16.60
2018-10-06T03:51:15.315Z,13.40
2018-10-06T03:56:18.915Z,20.07
2018-10-06T04:01:22.536Z,26.00
2018-10-06T04:06:26.136Z,14.10
2018-10-06T04:11:30.728Z,17.37
2018-10-06T04:16:34.327Z,14.70
2018-10-06T04:21:42.310Z,15.27
2018-10-06T04:26:45.906Z,18.67
2018-10-06T04:31:49.508Z,22.63
2018-10-06T04:36:53.101Z,18.90
2018-10-06T04:41:56.710Z,14.27
2018-10-06T04:47:00.314Z,24.20
2018-10-06T04:52:03.962Z,16.90
2018-10-06T04:57:07.567Z,14.87
2018-10-06T05:02:11.142Z,23.50
2018-10-06T05:07:14.750Z,15.40
2018-10-06T05:12:18.342Z,14.20
2018-10-06T05:17:21.938Z,18.37
2018-10-06T05:22:26.323Z,14.10
2018-10-06T05:27:29.944Z,13.67
2018-10-06T05:32:33.535Z,19.00
2018-10-06T05:37:37.132Z,14.53
2018-10-06T05:42:40.731Z,16.93
2018-10-06T05:47:44.352Z,11.13
2018-10-06T05:52:47.971Z,14.17
2018-10-06T05:57:51.600Z,19.27
2018-10-06T06:02:55.214Z,12.13
2018-10-06T06:07:58.807Z,18.17
2018-10-06T06:13:02.427Z,15.40
2018-10-06T06:18:06.015Z,14.90
2018-10-06T06:23:09.615Z,10.93
2018-10-06T06:28:13.211Z,15.20
2018-10-06T06:33:16.799Z,16.80
2018-10-06T06:38:20.456Z,14.27
2018-10-06T06:43:24.043Z,15.90
2018-10-06T06:48:27.754Z,13.93
2018-10-06T06:53:31.367Z,14.13
2018-10-06T06:58:35.020Z,14.80
2018-10-06T07:03:38.604Z,14.17
2018-10-06T07:08:42.299Z,13.10
2018-10-06T07:13:46.697Z,16.27
2018-10-06T07:18:51.462Z,11.50
2018-10-06T07:23:55.705Z,14.30
2018-10-06T07:28:59.295Z,14.30
2018-10-06T07:34:03.851Z,13.77
2018-10-06T07:39:07.479Z,13.20
2018-10-06T07:44:11.098Z,11.67
2018-10-06T07:49:14.711Z,18.37
2018-10-06T07:54:18.322Z,14.33
2018-10-06T07:59:22.052Z,10.10
2018-10-06T08:04:25.629Z,11.07
2018-10-06T08:09:29.231Z,13.50
2018-10-06T08:14:32.927Z,13.03
2018-10-06T08:19:36.558Z,13.60
2018-10-06T08:24:40.191Z,9.60
2018-10-06T08:29:43.886Z,17.43
2018-10-06T08:34:47.593Z,11.80
2018-10-06T08:39:51.195Z,10.17
2018-10-06T08:44:54.823Z,7.60
2018-10-06T08:49:58.434Z,10.97
2018-10-06T08:55:02.044Z,9.30
2018-10-06T09:00:06.010Z,12.37
2018-10-06T09:05:09.617Z,10.50
2018-10-06T09:10:13.270Z,8.10
2018-10-06T09:15:16.932Z,10.67
2018-10-06T09:20:20.519Z,14.30
2018-10-06T09:25:24.179Z,9.73
2018-10-06T09:30:27.810Z,7.57
2018-10-06T09:35:31.423Z,13.53
2018-10-06T09:40:35.050Z,7.13
2018-10-06T09:45:38.763Z,12.80
2018-10-06T09:50:42.478Z,7.17
2018-10-06T09:55:46.183Z,9.40
2018-10-06T10:00:55.146Z,9.23
2018-10-06T10:05:58.847Z,11.40
2018-10-06T10:11:02.460Z,8.40
2018-10-06T10:16:06.452Z,7.40
2018-10-06T10:21:10.066Z,6.80
2018-10-06T10:26:13.691Z,12.73
2018-10-06T10:31:17.577Z,12.77
2018-10-06T10:36:21.266Z,5.87
2018-10-06T10:41:24.874Z,9.23
2018-10-06T10:46:28.482Z,7.13
2018-10-06T10:51:32.094Z,7.73
2018-10-06T10:56:35.714Z,6.67
2018-10-06T11:01:39.298Z,9.23
2018-10-06T11:06:42.889Z,10.03
2018-10-06T11:11:46.494Z,11.87
2018-10-06T11:16:50.106Z,9.37
2018-10-06T11:21:53.702Z,11.90
2018-10-06T11:26:57.310Z,5.43
2018-10-06T11:32:00.933Z,9.20
2018-10-06T11:37:04.534Z,7.10
2018-10-06T11:42:08.142Z,10.03
2018-10-06T11:47:11.774Z,5.40
2018-10-06T11:52:15.363Z,10.57
2018-10-06T11:57:18.966Z,10.63
2018-10-06T12:02:22.583Z,7.60
2018-10-06T12:07:26.182Z,5.40
2018-10-06T12:12:29.799Z,8.93
2018-10-06T12:17:33.410Z,7.77
2018-10-06T12:22:37.030Z,6.67
2018-10-06T12:27:40.630Z,12.67
2018-10-06T12:32:44.267Z,9.20
2018-10-06T12:37:47.914Z,9.33
2018-10-06T12:42:51.518Z,6.53
2018-10-06T12:47:55.131Z,17.47
2018-10-06T12:52:58.761Z,4.70
2018-10-06T12:58:02.383Z,5.70
2018-10-06T13:03:06.023Z,8.00
2018-10-06T13:08:09.724Z,6.40
2018-10-06T13:13:13.365Z,6.50
2018-10-06T13:18:16.953Z,5.20
2018-10-06T13:23:20.549Z,3.90
2018-10-06T13:28:24.187Z,9.90
2018-10-06T13:33:27.814Z,3.80
2018-10-06T13:38:31.403Z,9.93
2018-10-06T13:43:35.015Z,6.23
2018-10-06T13:48:38.635Z,4.60
2018-10-06T13:53:42.229Z,4.50
2018-10-06T13:58:45.833Z,8.33
2018-10-06T14:03:49.435Z,3.30
2018-10-06T14:08:53.081Z,8.40
2018-10-06T14:13:56.689Z,5.50
2018-10-06T14:19:00.289Z,3.90
2018-10-06T14:24:03.902Z,3.50
2018-10-06T14:29:07.534Z,5.70
2018-10-06T14:34:11.140Z,6.93
2018-10-06T14:39:14.734Z,4.50
2018-10-06T14:44:18.469Z,3.90
2018-10-06T14:49:21.967Z,8.10
2018-10-06T14:54:25.566Z,6.83
2018-10-06T14:59:29.243Z,3.20
2018-10-06T15:04:32.851Z,7.70
2018-10-06T15:09:36.447Z,4.50
2018-10-06T15:14:40.034Z,6.10
2018-10-06T15:19:43.726Z,6.40
2018-10-06T15:24:47.330Z,5.53
2018-10-06T15:29:50.966Z,4.57
2018-10-06T15:34:54.882Z,6.10
2018-10-06T15:39:58.474Z,3.33
2018-10-06T15:45:02.246Z,4.00
2018-10-06T15:50:06.063Z,6.40
2018-10-06T15:55:09.658Z,4.83
2018-10-06T16:00:13.279Z,8.43
2018-10-06T16:05:16.914Z,10.97
2018-10-06T16:10:20.540Z,11.50
2018-10-06T16:15:24.287Z,14.90
2018-10-06T16:20:27.894Z,21.00
2018-10-06T16:25:31.533Z,12.45
2018-10-06T16:30:35.182Z,15.13
2018-10-06T16:35:38.886Z,10.40
2018-10-06T16:40:42.486Z,14.63
2018-10-06T16:45:46.284Z,11.17
2018-10-06T16:50:49.880Z,12.00
2018-10-06T16:55:53.614Z,12.60
2018-10-06T17:00:57.235Z,11.23
2018-10-06T17:06:00.950Z,16.40
2018-10-06T17:11:04.575Z,13.23
2018-10-06T17:16:08.665Z,10.23
2018-10-06T17:21:12.276Z,16.67
2018-10-06T17:26:16.207Z,13.20
2018-10-06T17:31:19.992Z,18.03
2018-10-06T17:36:23.642Z,17.53
2018-10-06T17:41:27.247Z,37.57
2018-10-06T17:46:30.880Z,22.30
2018-10-06T17:51:34.495Z,26.90
2018-10-06T17:56:38.110Z,24.73
2018-10-06T18:01:41.733Z,22.27
2018-10-06T18:06:45.359Z,19.90
2018-10-06T18:11:48.983Z,16.70
2018-10-06T18:16:52.606Z,10.73
2018-10-06T18:21:56.227Z,11.87
2018-10-06T18:26:59.875Z,13.53
2018-10-06T18:32:03.479Z,11.87
2018-10-06T18:37:07.159Z,8.80
2018-10-06T18:42:10.679Z,7.17
2018-10-06T18:47:14.299Z,9.73
2018-10-06T18:52:17.973Z,10.80
2018-10-06T18:57:21.528Z,9.70
2018-10-06T19:02:25.163Z,8.00
2018-10-06T19:07:28.795Z,10.47
2018-10-06T19:12:33.018Z,10.57
2018-10-06T19:17:37.194Z,10.60
2018-10-06T19:22:40.872Z,12.10
2018-10-06T19:27:44.470Z,13.97
2018-10-06T19:32:48.066Z,12.77
2018-10-06T19:37:51.789Z,14.47
2018-10-06T19:42:55.360Z,13.23
2018-10-06T19:47:58.988Z,17.00
2018-10-06T19:53:02.631Z,11.80
2018-10-06T19:58:06.251Z,15.93
2018-10-06T20:03:09.879Z,11.70
2018-10-06T20:08:13.490Z,15.73
2018-10-06T20:13:17.107Z,10.00
2018-10-06T20:18:20.714Z,11.97
2018-10-06T20:23:24.402Z,14.27
2018-10-06T20:28:28.013Z,15.60
2018-10-06T20:33:31.657Z,14.87
2018-10-06T20:38:35.539Z,15.37
2018-10-06T20:43:39.158Z,15.30
2018-10-06T20:48:42.773Z,11.93
2018-10-06T20:53:46.359Z,12.33
2018-10-06T20:58:50.165Z,13.07
2018-10-06T21:03:53.759Z,11.90
2018-10-06T21:08:57.385Z,12.17
2018-10-06T21:14:00.983Z,13.67
2018-10-06T21:19:05.551Z,16.13
2018-10-06T21:24:09.434Z,15.07
2018-10-06T21:29:13.265Z,13.40
2018-10-06T21:39:26.811Z,12.37
2018-10-06T21:44:30.487Z,16.20
2018-10-06T21:49:34.107Z,12.63
2018-10-06T21:54:37.722Z,12.30
2018-10-06T21:59:42.410Z,11.73
2018-10-06T22:04:46.023Z,13.10
2018-10-06T22:09:49.635Z,17.17
2018-10-06T22:14:53.291Z,12.67
2018-10-06T22:19:56.966Z,14.73
2018-10-06T22:25:00.654Z,15.27
2018-10-06T22:30:05.216Z,9.63
2018-10-06T22:35:08.810Z,14.10
2018-10-06T22:40:12.454Z,16.10
2018-10-06T22:45:17.683Z,15.73
2018-10-06T22:50:21.354Z,16.13
2018-10-06T22:55:24.962Z,11.57
2018-10-06T23:00:28.561Z,11.80
2018-10-06T23:05:32.219Z,9.57
2018-10-06T23:10:35.828Z,11.10
2018-10-06T23:15:39.423Z,10.40
2018-10-06T23:20:43.018Z,10.27
2018-10-06T23:25:46.694Z,10.37
2018-10-06T23:30:50.298Z,14.30
2018-10-06T23:35:53.935Z,10.83
2018-10-06T23:40:57.528Z,12.23
2018-10-06T23:46:01.166Z,12.73
2018-10-06T23:51:04.768Z,13.38
2018-10-06T23:56:08.354Z,14.17
